createdAt,value
2023-05-10T10:10:37.920Z,1.95
2023-05-10T10:13:06.055Z,1.83
2023-05-10T10:15:34.624Z,2.20
2023-05-10T10:18:02.706Z,2.60
2023-05-10T10:20:30.537Z,2.45
2023-05-10T10:22:58.101Z,2.58
2023-05-10T10:25:26.588Z,2.58
2023-05-10T10:28:13.431Z,2.20
2023-05-10T10:30:44.004Z,2.20
2023-05-10T10:33:31.669Z,1.98
2023-05-10T10:36:01.475Z,2.95
2023-05-10T10:38:38.185Z,2.83
2023-05-10T10:41:11.805Z,2.00
2023-05-10T10:43:40.830Z,2.30
2023-05-10T10:46:16.057Z,3.53
2023-05-10T10:48:49.569Z,2.80
2023-05-10T10:51:17.693Z,2.55
2023-05-10T10:53:45.693Z,5.32
2023-05-10T10:56:16.465Z,3.22
2023-05-10T10:58:51.430Z,2.95
2023-05-10T11:01:20.623Z,2.25
2023-05-10T11:04:18.738Z,2.08
2023-05-10T11:06:46.503Z,2.30
2023-05-10T11:09:14.270Z,2.08
2023-05-10T11:11:53.201Z,2.33
2023-05-10T11:14:23.036Z,2.13
2023-05-10T11:16:52.943Z,2.25
2023-05-10T11:19:21.322Z,3.20
2023-05-10T11:21:50.428Z,3.65
2023-05-10T11:24:20.082Z,3.25
2023-05-10T11:26:51.590Z,2.90
2023-05-10T11:29:23.185Z,3.90
2023-05-10T11:31:52.309Z,3.38
2023-05-10T11:34:27.339Z,3.17
2023-05-10T11:36:56.805Z,3.67
2023-05-10T11:39:28.411Z,3.30
2023-05-10T11:41:56.792Z,3.08
2023-05-10T11:44:30.536Z,3.35
2023-05-10T11:46:59.990Z,2.65
2023-05-10T11:49:27.674Z,2.90
2023-05-10T11:52:05.335Z,2.80
2023-05-10T11:54:33.870Z,3.40
2023-05-10T11:57:01.669Z,3.00
2023-05-10T11:59:31.071Z,3.97
2023-05-10T12:01:58.984Z,3.70
2023-05-10T12:04:27.076Z,3.17
2023-05-10T12:06:54.980Z,2.95
2023-05-10T12:09:31.856Z,3.00
2023-05-10T12:12:03.790Z,2.85
2023-05-10T12:14:36.566Z,2.78
2023-05-10T12:17:04.273Z,3.20
2023-05-10T12:19:38.582Z,2.85
2023-05-10T12:22:06.669Z,2.83
2023-05-10T12:24:35.740Z,3.20
2023-05-10T12:27:06.277Z,3.65
2023-05-10T12:29:35.513Z,3.50
2023-05-10T12:32:03.393Z,3.70
2023-05-10T12:34:33.463Z,3.60
2023-05-10T12:37:01.890Z,3.60
2023-05-10T12:39:40.200Z,2.92
2023-05-10T12:42:08.249Z,3.05
2023-05-10T12:44:37.587Z,3.20
2023-05-10T12:47:05.314Z,2.88
2023-05-10T12:49:33.090Z,2.80
2023-05-10T12:52:00.754Z,2.95
2023-05-10T12:54:28.325Z,3.10
2023-05-10T12:56:56.200Z,2.80
2023-05-10T12:59:24.041Z,3.08
2023-05-10T13:01:53.036Z,2.80
2023-05-10T13:04:20.754Z,2.97
2023-05-10T13:06:48.968Z,3.55
2023-05-10T13:09:16.526Z,2.85
2023-05-10T13:11:44.373Z,2.88
2023-05-10T13:14:12.241Z,2.63
2023-05-10T13:16:39.857Z,2.95
2023-05-10T13:19:09.105Z,2.95
2023-05-10T13:21:37.450Z,3.03
2023-05-10T13:24:05.132Z,3.70
2023-05-10T13:26:32.945Z,3.53
2023-05-10T13:29:00.802Z,3.08
2023-05-10T13:31:28.579Z,3.22
2023-05-10T13:33:56.824Z,3.38
2023-05-10T13:36:25.904Z,3.22
2023-05-10T13:38:53.582Z,2.95
2023-05-10T13:41:21.329Z,3.10
2023-05-10T13:43:48.916Z,2.78
2023-05-10T13:46:16.486Z,2.97
2023-05-10T13:48:44.291Z,2.88
2023-05-10T13:51:11.982Z,3.10
2023-05-10T13:53:40.992Z,2.88
2023-05-10T13:56:08.830Z,3.08
2023-05-10T13:58:36.777Z,3.00
2023-05-10T14:01:04.408Z,3.78
2023-05-10T14:03:32.310Z,3.22
2023-05-10T14:06:00.188Z,3.10
2023-05-10T14:08:27.793Z,3.30
2023-05-10T14:10:57.055Z,3.38
2023-05-10T14:13:25.065Z,2.90
2023-05-10T14:15:53.798Z,3.28
2023-05-10T14:18:21.793Z,3.45
2023-05-10T14:20:49.923Z,3.08
2023-05-10T14:23:17.598Z,3.17
2023-05-10T14:25:45.287Z,3.22
2023-05-10T14:28:14.361Z,2.97
2023-05-10T14:30:41.988Z,2.92
2023-05-10T14:33:11.632Z,3.80
2023-05-10T14:35:39.484Z,3.30
2023-05-10T14:38:07.116Z,3.15
2023-05-10T14:40:34.881Z,3.42
2023-05-10T14:43:02.718Z,3.40
2023-05-10T14:45:31.844Z,2.85
2023-05-10T14:47:59.709Z,3.35
2023-05-10T14:50:36.619Z,2.80
2023-05-10T14:53:05.276Z,3.47
2023-05-10T14:55:32.961Z,3.88
2023-05-10T14:58:00.566Z,3.40
2023-05-10T15:00:33.039Z,3.45
2023-05-10T15:03:01.248Z,3.97
2023-05-10T15:05:29.479Z,3.20
2023-05-10T15:07:57.798Z,3.03
2023-05-10T15:10:25.588Z,3.15
2023-05-10T15:12:53.168Z,3.13
2023-05-10T15:15:21.104Z,3.72
2023-05-10T15:17:50.263Z,3.28
2023-05-10T15:20:18.272Z,3.75
2023-05-10T15:22:46.059Z,4.10
2023-05-10T15:25:14.182Z,4.15
2023-05-10T15:27:41.904Z,3.67
2023-05-10T15:30:10.723Z,3.63
2023-05-10T15:32:38.965Z,3.72
2023-05-10T15:35:09.483Z,3.58
2023-05-10T15:37:37.463Z,3.90
2023-05-10T15:40:06.334Z,3.70
2023-05-10T15:42:34.104Z,3.80
2023-05-10T15:45:01.944Z,3.00
2023-05-10T15:47:31.312Z,3.67
2023-05-10T15:49:58.899Z,3.63
2023-05-10T15:52:28.025Z,3.75
2023-05-10T15:54:55.826Z,3.75
2023-05-10T15:57:23.434Z,3.47
2023-05-10T15:59:51.165Z,3.72
2023-05-10T16:02:18.939Z,3.60
2023-05-10T16:04:46.557Z,3.53
2023-05-10T16:07:14.431Z,3.55
2023-05-10T16:09:43.656Z,3.67
2023-05-10T16:12:11.619Z,4.03
2023-05-10T16:14:39.477Z,4.38
2023-05-10T16:17:07.296Z,5.63
2023-05-10T16:19:34.980Z,5.20
2023-05-10T16:22:05.550Z,4.82
2023-05-10T16:24:33.524Z,4.80
2023-05-10T16:27:02.500Z,3.80
2023-05-10T16:29:30.255Z,4.30
2023-05-10T16:31:57.996Z,3.67
2023-05-10T16:34:25.718Z,4.13
2023-05-10T16:36:53.456Z,3.83
2023-05-10T16:39:21.599Z,3.58
2023-05-10T16:41:49.334Z,3.03
2023-05-10T16:44:20.572Z,3.50
2023-05-10T16:46:49.064Z,3.95
2023-05-10T16:49:16.713Z,6.72
2023-05-10T16:51:44.726Z,5.72
2023-05-10T16:54:12.402Z,4.30
2023-05-10T16:56:39.973Z,4.38
2023-05-10T16:59:07.666Z,4.57
2023-05-10T17:01:37.866Z,4.25
2023-05-10T17:04:11.783Z,3.80
2023-05-10T17:06:39.800Z,3.00
2023-05-10T17:09:07.479Z,3.38
2023-05-10T17:11:38.348Z,3.20
2023-05-10T17:14:06.340Z,2.70
2023-05-10T17:16:35.354Z,2.85
2023-05-10T17:19:05.154Z,3.08
2023-05-10T17:21:33.092Z,2.88
2023-05-10T17:24:00.699Z,2.63
2023-05-10T17:26:28.370Z,3.00
2023-05-10T17:28:57.403Z,3.25
2023-05-10T17:31:25.362Z,3.47
2023-05-10T17:34:04.708Z,4.38
2023-05-10T17:36:35.287Z,5.43
2023-05-10T17:39:03.167Z,4.38
2023-05-10T17:41:33.266Z,4.05
2023-05-10T17:44:01.070Z,2.72
2023-05-10T17:46:29.439Z,2.53
2023-05-10T17:48:59.806Z,3.53
2023-05-10T17:51:28.205Z,3.05
2023-05-10T17:53:57.920Z,2.78
2023-05-10T17:56:25.704Z,3.05
2023-05-10T17:58:53.525Z,3.00
2023-05-10T18:01:21.495Z,3.08
2023-05-10T18:03:49.994Z,2.88
2023-05-10T18:06:17.880Z,2.80
2023-05-10T18:08:45.804Z,3.08
2023-05-10T18:11:14.962Z,3.10
2023-05-10T18:13:43.006Z,2.95
2023-05-10T18:16:20.913Z,3.22
2023-05-10T18:18:49.801Z,11.88
2023-05-10T18:21:20.746Z,7.70
2023-05-10T18:23:48.480Z,21.55
2023-05-10T18:26:17.720Z,5.32
2023-05-10T18:28:45.507Z,12.35
2023-05-10T18:31:13.175Z,11.55
2023-05-10T18:33:44.423Z,7.18
2023-05-10T18:36:12.640Z,4.72
2023-05-10T18:38:40.719Z,4.65
2023-05-10T18:41:08.745Z,3.72
2023-05-10T18:43:39.254Z,3.97
2023-05-10T18:46:07.169Z,3.33
2023-05-10T18:48:35.576Z,3.50
2023-05-10T18:51:03.414Z,3.30
2023-05-10T18:53:31.159Z,3.22
2023-05-10T18:55:59.185Z,3.42
2023-05-10T18:58:29.027Z,3.60
2023-05-10T19:00:59.949Z,7.13
2023-05-10T19:03:31.325Z,4.15
2023-05-10T19:05:58.887Z,5.30
2023-05-10T19:08:26.728Z,5.95
2023-05-10T19:10:55.061Z,10.82
2023-05-10T19:13:22.727Z,10.07
2023-05-10T19:16:02.818Z,11.18
2023-05-10T19:18:34.629Z,11.25
2023-05-10T19:23:32.490Z,10.65
2023-05-10T19:26:00.625Z,14.60
2023-05-10T19:28:28.192Z,13.77
2023-05-10T19:30:56.117Z,12.45
2023-05-10T19:33:26.796Z,24.25
2023-05-10T19:35:55.409Z,30.33
2023-05-10T19:38:23.767Z,16.25
2023-05-10T19:40:52.113Z,11.93
2023-05-10T19:43:20.496Z,16.90
2023-05-10T19:45:48.617Z,16.45
2023-05-10T19:48:16.656Z,14.40
2023-05-10T19:50:46.026Z,7.75
2023-05-10T19:53:13.841Z,14.73
2023-05-10T19:55:41.404Z,27.45
2023-05-10T19:58:09.180Z,13.25
2023-05-10T20:00:37.710Z,13.65
2023-05-10T20:03:06.377Z,16.15
2023-05-10T20:05:36.255Z,15.80
2023-05-10T20:08:05.487Z,26.55
2023-05-10T20:10:33.086Z,15.95
2023-05-10T20:13:01.309Z,18.33
2023-05-10T20:15:29.904Z,30.67
2023-05-10T20:17:57.562Z,18.15
2023-05-10T20:20:25.249Z,13.52
2023-05-10T20:22:53.142Z,15.90
2023-05-10T20:25:22.353Z,18.95
2023-05-10T20:27:49.897Z,12.40
2023-05-10T20:30:18.360Z,10.13
2023-05-10T20:32:46.153Z,16.77
2023-05-10T20:35:13.731Z,15.82
2023-05-10T20:37:41.863Z,21.40
2023-05-10T20:40:10.161Z,29.30
2023-05-10T20:42:39.478Z,13.10
2023-05-10T20:45:10.957Z,10.70
2023-05-10T20:47:38.782Z,10.77
2023-05-10T20:50:07.391Z,9.70
2023-05-10T20:52:35.344Z,8.48
2023-05-10T20:55:02.880Z,8.80
2023-05-10T20:57:30.691Z,9.40
2023-05-10T21:00:00.052Z,8.57
2023-05-10T21:02:27.775Z,8.88
2023-05-10T21:04:57.769Z,12.05
2023-05-10T21:07:26.304Z,12.37
2023-05-10T21:09:53.881Z,6.65
2023-05-10T21:12:21.441Z,5.82
2023-05-10T21:14:49.433Z,6.30
2023-05-10T21:17:20.134Z,7.95
2023-05-10T21:19:48.258Z,6.03
2023-05-10T21:22:16.101Z,6.07
2023-05-10T21:24:44.033Z,8.05
2023-05-10T21:27:11.616Z,16.15
2023-05-10T21:29:39.875Z,9.30
2023-05-10T21:32:07.572Z,7.63
2023-05-10T21:34:36.663Z,6.55
2023-05-10T21:37:04.543Z,5.82
2023-05-10T21:39:32.207Z,5.93
2023-05-10T21:41:59.777Z,7.55
2023-05-10T21:44:27.769Z,7.18
2023-05-10T21:46:55.375Z,5.95
2023-05-10T21:49:22.938Z,6.28
2023-05-10T21:51:52.201Z,5.28
2023-05-10T21:54:19.848Z,6.00
2023-05-10T21:56:47.675Z,5.30
2023-05-10T21:59:15.732Z,5.30
2023-05-10T22:01:43.341Z,5.30
2023-05-10T22:04:10.914Z,5.32
2023-05-10T22:06:39.414Z,5.00
2023-05-10T22:09:08.407Z,5.45
2023-05-10T22:11:36.024Z,12.68
2023-05-10T22:14:04.294Z,6.47
2023-05-10T22:16:32.343Z,7.05
2023-05-10T22:19:00.062Z,5.85
2023-05-10T22:21:27.927Z,5.00
2023-05-10T22:23:55.580Z,4.88
2023-05-10T22:26:25.444Z,4.95
2023-05-10T22:28:53.276Z,5.85
2023-05-10T22:31:20.911Z,5.40
2023-05-10T22:33:48.508Z,5.45
2023-05-10T22:36:16.371Z,4.43
2023-05-10T22:38:43.955Z,5.38
2023-05-10T22:41:11.527Z,4.88
2023-05-10T22:43:40.999Z,5.18
2023-05-10T22:46:08.649Z,5.28
2023-05-10T22:48:37.034Z,5.13
2023-05-10T22:51:05.087Z,5.57
2023-05-10T22:53:32.786Z,7.85
2023-05-10T22:56:00.527Z,9.27
2023-05-10T22:58:28.458Z,10.48
2023-05-10T23:00:57.551Z,11.73
2023-05-10T23:03:25.775Z,7.15
2023-05-10T23:05:54.010Z,7.90
2023-05-10T23:08:21.971Z,9.07
2023-05-10T23:10:49.862Z,6.65
2023-05-10T23:13:17.890Z,6.85
2023-05-10T23:15:45.505Z,6.45
2023-05-10T23:18:14.459Z,7.38
2023-05-10T23:20:42.607Z,5.70
2023-05-10T23:23:10.398Z,5.68
2023-05-10T23:25:38.177Z,5.15
2023-05-10T23:28:06.048Z,5.88
2023-05-10T23:30:34.051Z,5.43
2023-05-10T23:33:01.688Z,6.57
2023-05-10T23:35:31.198Z,8.75
2023-05-10T23:37:58.880Z,11.95
2023-05-10T23:40:26.424Z,11.65
2023-05-10T23:42:54.541Z,12.27
2023-05-10T23:45:22.055Z,11.02
2023-05-10T23:47:49.643Z,10.45
2023-05-10T23:50:18.153Z,11.90
2023-05-10T23:52:47.465Z,10.70
2023-05-10T23:55:15.280Z,7.93
2023-05-10T23:57:43.278Z,8.40
